Time;durP1;ratioP1;P1;durP2;ratioP2;P2;SDS_P1;SDS_P2;PMS_P1;PMS_P2;Temp;Humidity;BMP_temperature;BMP_pressure;BME280_temperature;BME280_humidity;BME280_pressure;Samples;Min_cycle;Max_cycle;Signal;HPM_P1;HPM_P2
2023/03/13 00:01:27;;;;;;;;;;;;;;;9.22;69.69;101060.78;4886302;29;19924;-81
2023/03/13 00:03:55;;;;;;;;;;;;;;;9.21;70.00;101048.22;4881766;29;19929;-81
2023/03/13 00:10:42;;;;;;;;;;;;;;;9.08;70.38;101063.94;4890063;29;19919;-81
2023/03/13 00:13:10;;;;;;;;;;;;;;;9.03;70.62;101066.63;4900568;29;20310;-81
2023/03/13 00:15:37;;;;;;;;;;;;;;;8.93;71.83;101061.06;4900881;29;19931;-81
2023/03/13 00:18:05;;;;;;;;;;;;;;;8.90;72.21;101061.59;4883920;29;19924;-81
2023/03/13 00:20:32;;;;;;;;;;;;;;;8.76;72.49;101058.44;4883661;29;19924;-81
2023/03/13 00:23:00;;;;;;;;;;;;;;;8.76;72.32;101062.00;4900743;29;19927;-81
2023/03/13 00:25:28;;;;;;;;;;;;;;;8.86;72.04;101061.28;4900465;29;19924;-81
2023/03/13 00:27:55;;;;;;;;;;;;;;;8.90;72.57;101056.13;4900170;29;19931;-81
2023/03/13 00:30:23;;;;;;;;;;;;;;;8.82;72.37;101052.78;4900462;29;19923;-81
2023/03/13 00:32:51;;;;;;;;;;;;;;;8.79;72.33;101058.75;4900146;29;19927;-81
2023/03/13 00:35:19;;;;;;;;;;;;;;;8.76;73.20;101053.81;4900244;29;19930;-81
2023/03/13 00:37:46;;;;;;;;;;;;;;;8.75;72.63;101052.13;4900191;29;19927;-81
2023/03/13 00:40:14;;;;;;;;;;;;;;;8.84;72.09;101057.97;4900042;29;19924;-81
2023/03/13 00:42:44;;;;;;;;;;;;;;;8.86;72.51;101058.53;4883233;29;19927;-81
2023/03/13 00:45:11;;;;;;;;;;;;;;;8.82;72.10;101052.78;4883372;29;19931;-81
2023/03/13 00:47:39;;;;;;;;;;;;;;;8.77;72.90;101060.91;4900007;29;19927;-81
2023/03/13 00:50:08;;;;;;;;;;;;;;;8.75;73.02;101063.03;4883242;29;20390;-81
2023/03/13 00:52:36;;;;;;;;;;;;;;;8.78;73.21;101067.16;4883066;29;20290;-81
2023/03/13 00:55:04;;;;;;;;;;;;;;;8.77;73.26;101054.63;4899908;29;19930;-81
2023/03/13 00:57:36;;;;;;;;;;;;;;;8.87;72.71;101043.81;4899895;29;19923;-81
2023/03/13 01:00:07;;;;;;;;;;;;;;;8.95;72.56;101045.25;4883012;29;19934;-81
2023/03/13 01:02:39;;;;;;;;;;;;;;;8.92;73.57;101051.22;4899685;29;19929;-81
2023/03/13 01:05:08;;;;;;;;;;;;;;;8.96;72.84;101038.72;4899777;29;19928;-81
2023/03/13 01:07:35;;;;;;;;;;;;;;;8.89;72.54;101040.84;4899727;29;20409;-81
2023/03/13 01:10:03;;;;;;;;;;;;;;;9.00;72.48;101031.66;4899882;29;19934;-81
2023/03/13 01:12:31;;;;;;;;;;;;;;;9.02;72.68;101026.75;4899511;29;20456;-81
2023/03/13 01:14:58;;;;;;;;;;;;;;;9.03;72.88;101025.69;4898505;29;19935;-81
2023/03/13 01:17:26;;;;;;;;;;;;;;;9.11;72.25;101035.31;4899511;29;19950;-81
2023/03/13 01:19:56;;;;;;;;;;;;;;;9.30;71.36;101034.94;4899473;29;19928;-81
2023/03/13 01:22:24;;;;;;;;;;;;;;;9.28;71.15;101040.63;4899472;29;19935;-80
2023/03/13 01:24:52;;;;;;;;;;;;;;;9.46;70.47;101038.59;4899249;29;19924;-81
2023/03/13 01:27:20;;;;;;;;;;;;;;;9.43;71.17;101039.13;4882764;29;19923;-81
2023/03/13 01:29:48;;;;;;;;;;;;;;;9.32;71.75;101033.59;4866881;29;20492;-81
2023/03/13 01:32:15;;;;;;;;;;;;;;;9.38;71.72;101021.63;4899060;29;19923;-81
2023/03/13 01:34:43;;;;;;;;;;;;;;;9.47;71.01;101024.69;4882380;29;19923;-81
2023/03/13 01:37:10;;;;;;;;;;;;;;;9.46;71.13;101033.97;4899099;29;19923;-81
2023/03/13 01:39:38;;;;;;;;;;;;;;;9.45;71.51;101026.03;4899141;29;20409;-81
2023/03/13 01:42:06;;;;;;;;;;;;;;;9.52;70.86;101026.63;4882256;29;19923;-81
2023/03/13 01:44:48;;;;;;;;;;;;;;;9.57;70.85;101023.94;4897688;29;19938;-81
2023/03/13 01:47:15;;;;;;;;;;;;;;;9.51;71.36;101009.44;4898858;29;19928;-81
2023/03/13 01:49:58;;;;;;;;;;;;;;;9.44;71.26;101019.75;4898855;29;19927;-81
2023/03/13 01:52:51;;;;;;;;;;;;;;;9.41;71.71;101012.91;4886766;29;19928;-81
2023/03/13 01:55:24;;;;;;;;;;;;;;;9.49;71.67;101008.03;4881852;29;19930;-81
2023/03/13 01:57:53;;;;;;;;;;;;;;;9.59;71.00;101010.03;4881989;29;19923;-81
2023/03/13 02:00:25;;;;;;;;;;;;;;;9.66;70.44;101011.44;4881819;29;20314;-81
2023/03/13 02:02:54;;;;;;;;;;;;;;;9.65;70.86;101009.81;4881432;29;19923;-81
2023/03/13 02:05:24;;;;;;;;;;;;;;;9.72;69.95;101014.22;4898281;29;19943;-81
2023/03/13 02:08:06;;;;;;;;;;;;;;;9.72;70.00;101017.75;4881705;29;20396;-81
2023/03/13 02:10:38;;;;;;;;;;;;;;;9.65;70.60;101026.19;4898276;29;19923;-81
2023/03/13 02:13:06;;;;;;;;;;;;;;;9.60;70.58;101025.31;4897337;29;19924;-81
2023/03/13 02:15:33;;;;;;;;;;;;;;;9.57;70.87;101029.41;4897155;29;19931;-81
2023/03/13 02:18:01;;;;;;;;;;;;;;;9.45;71.68;101031.50;4881677;29;19930;-81
2023/03/13 02:20:29;;;;;;;;;;;;;;;9.19;72.65;101032.09;4881673;29;19931;-81
2023/03/13 02:23:25;;;;;;;;;;;;;;;;;;;;;
2023/03/13 02:25:53;;;;;;;;;;;;;;;9.32;72.67;101036.31;4898160;29;19927;-81
2023/03/13 02:28:33;;;;;;;;;;;;;;;9.22;72.93;101038.94;4881453;29;19935;-81
2023/03/13 02:31:05;;;;;;;;;;;;;;;9.30;72.84;101021.28;4881327;29;19923;-81
2023/03/13 02:33:43;;;;;;;;;;;;;;;9.31;71.85;101018.28;4881191;29;20421;-81
2023/03/13 02:36:16;;;;;;;;;;;;;;;9.20;72.37;100992.81;4881378;29;19923;-81
2023/03/13 02:38:50;;;;;;;;;;;;;;;9.21;73.52;100982.69;4898027;29;19927;-81
2023/03/13 02:41:20;;;;;;;;;;;;;;;9.31;72.27;100979.22;4880681;29;19927;-81
2023/03/13 02:43:48;;;;;;;;;;;;;;;9.45;71.62;100977.69;4896470;29;19927;-81
2023/03/13 02:46:17;;;;;;;;;;;;;;;9.39;72.24;100974.09;4896377;29;20363;-80
2023/03/13 02:48:52;;;;;;;;;;;;;;;9.42;71.88;100983.66;4897864;29;20422;-80
2023/03/13 02:51:22;;;;;;;;;;;;;;;9.33;71.98;100980.59;4897711;29;19927;-81
2023/03/13 02:53:51;;;;;;;;;;;;;;;9.28;71.75;100981.41;4897776;29;19930;-81
2023/03/13 02:56:20;;;;;;;;;;;;;;;9.40;71.21;100988.59;4896617;29;19933;-81
2023/03/13 02:58:48;;;;;;;;;;;;;;;9.32;71.58;100991.78;4896650;29;19924;-81
2023/03/13 03:01:20;;;;;;;;;;;;;;;9.05;72.93;101017.25;4880970;29;20370;-81
2023/03/13 03:03:48;;;;;;;;;;;;;;;9.20;72.10;101014.66;4880853;29;20283;-81
2023/03/13 03:06:15;;;;;;;;;;;;;;;8.91;73.56;101025.00;4879846;29;19934;-81
2023/03/13 03:08:47;;;;;;;;;;;;;;;8.72;74.36;101020.75;4880983;29;19924;-81
2023/03/13 03:11:14;;;;;;;;;;;;;;;8.62;75.17;101027.97;4897484;29;19924;-80
2023/03/13 03:13:46;;;;;;;;;;;;;;;8.60;75.18;101028.22;4880948;29;20279;-81
2023/03/13 03:16:19;;;;;;;;;;;;;;;8.56;75.78;101021.66;4881028;29;19930;-81
2023/03/13 03:18:47;;;;;;;;;;;;;;;8.57;76.17;101024.09;4880892;29;19924;-81
2023/03/13 03:21:15;;;;;;;;;;;;;;;8.56;76.12;101022.47;4896534;29;20394;-81
2023/03/13 03:23:43;;;;;;;;;;;;;;;8.50;76.44;101020.72;4896296;29;19930;-80
2023/03/13 03:26:11;;;;;;;;;;;;;;;8.45;77.03;101031.56;4880722;29;19923;-81
2023/03/13 03:28:38;;;;;;;;;;;;;;;8.38;76.97;101041.84;4896262;29;19923;-81
2023/03/13 03:31:12;;;;;;;;;;;;;;;8.46;76.57;101038.69;4896185;29;19934;-81
2023/03/13 03:33:40;;;;;;;;;;;;;;;8.51;76.71;101046.91;4897442;29;19946;-81
2023/03/13 03:36:13;;;;;;;;;;;;;;;8.47;76.90;101052.06;4880744;29;19923;-81
2023/03/13 03:38:41;;;;;;;;;;;;;;;8.53;76.25;101054.88;4896151;29;19930;-81
2023/03/13 03:41:12;;;;;;;;;;;;;;;8.55;76.24;101058.22;4880570;29;20378;-81
2023/03/13 03:43:40;;;;;;;;;;;;;;;8.53;76.23;101060.34;4896589;29;19927;-81
2023/03/13 03:46:10;;;;;;;;;;;;;;;8.59;76.21;101070.22;4880650;29;19923;-81
2023/03/13 03:48:38;;;;;;;;;;;;;;;8.59;76.31;101064.78;4896087;29;20302;-81
2023/03/13 03:51:07;;;;;;;;;;;;;;;8.66;75.91;101053.69;4880395;29;19923;-81
2023/03/13 03:53:39;;;;;;;;;;;;;;;8.77;75.45;101054.63;4896008;29;19939;-81
2023/03/13 03:56:07;;;;;;;;;;;;;;;8.78;75.40;101051.63;4880422;29;19951;-81
2023/03/13 03:58:39;;;;;;;;;;;;;;;8.83;75.73;101048.13;4896898;29;19924;-81
2023/03/13 04:01:13;;;;;;;;;;;;;;;8.88;75.22;101053.66;4895901;29;20402;-81
2023/03/13 04:03:40;;;;;;;;;;;;;;;8.96;75.88;101055.09;4895808;29;19924;-81
2023/03/13 04:06:09;;;;;;;;;;;;;;;8.94;75.21;101057.28;4895970;29;19946;-81
2023/03/13 04:08:36;;;;;;;;;;;;;;;8.92;75.41;101053.94;4880335;29;19923;-81
2023/03/13 04:11:04;;;;;;;;;;;;;;;8.90;75.25;101059.66;4895749;29;19924;-81
2023/03/13 04:13:36;;;;;;;;;;;;;;;8.97;75.28;101060.31;4895737;29;19923;-81
2023/03/13 04:16:07;;;;;;;;;;;;;;;9.05;76.10;101072.66;4897094;29;19924;-81
2023/03/13 04:18:35;;;;;;;;;;;;;;;9.05;74.62;101060.91;4883756;29;19924;-81
2023/03/13 04:21:04;;;;;;;;;;;;;;;9.02;74.88;101067.72;4883741;29;19927;-81
2023/03/13 04:23:39;;;;;;;;;;;;;;;9.09;74.74;101065.59;4899282;29;19956;-81
2023/03/13 04:26:07;;;;;;;;;;;;;;;9.22;74.05;101063.53;4899114;29;19923;-81
2023/03/13 04:28:35;;;;;;;;;;;;;;;9.30;73.49;101063.06;4899079;29;19923;-81
2023/03/13 04:31:04;;;;;;;;;;;;;;;9.36;73.14;101051.09;4898423;29;19935;-81
2023/03/13 04:33:51;;;;;;;;;;;;;;;9.32;73.45;101054.59;4900277;29;19923;-81
2023/03/13 04:36:37;;;;;;;;;;;;;;;9.46;72.72;101044.06;4900321;29;19927;-81
2023/03/13 04:39:24;;;;;;;;;;;;;;;9.43;73.54;101050.06;4900244;29;19934;-81
2023/03/13 04:42:15;;;;;;;;;;;;;;;9.40;73.64;101046.75;4883435;29;20374;-81
2023/03/13 04:44:45;;;;;;;;;;;;;;;9.47;73.86;101045.72;4900113;29;19923;-81
2023/03/13 04:47:42;;;;;;;;;;;;;;;9.48;72.82;101053.66;4891045;29;19931;-81
2023/03/13 04:50:30;;;;;;;;;;;;;;;9.56;73.94;101041.41;4899569;29;19935;-81
2023/03/13 04:53:21;;;;;;;;;;;;;;;9.63;71.94;101031.09;4894382;29;19933;-80
2023/03/13 04:56:17;;;;;;;;;;;;;;;9.67;73.75;101026.75;4881453;29;19935;-81
2023/03/13 04:59:05;;;;;;;;;;;;;;;9.70;71.98;101024.56;4899941;29;19946;-80
2023/03/13 05:01:51;;;;;;;;;;;;;;;9.72;72.67;101036.09;4899776;29;19934;-80
2023/03/13 05:04:35;;;;;;;;;;;;;;;9.66;73.07;101036.03;4898176;29;20398;-81
2023/03/13 05:07:22;;;;;;;;;;;;;;;9.67;72.29;101045.88;4898455;29;19928;-80
2023/03/13 05:10:04;;;;;;;;;;;;;;;9.71;71.67;101050.81;4898332;29;20286;-80
2023/03/13 05:12:47;;;;;;;;;;;;;;;9.79;71.39;101048.41;4898477;29;20032;-80
2023/03/13 05:15:25;;;;;;;;;;;;;;;9.85;70.89;101056.66;4882789;29;19923;-81
2023/03/13 05:18:15;;;;;;;;;;;;;;;9.85;70.95;101052.00;4898745;29;19927;-81
2023/03/13 05:20:57;;;;;;;;;;;;;;;9.86;71.37;101048.19;4877462;29;19924;-80
2023/03/13 05:23:48;;;;;;;;;;;;;;;9.92;73.94;101047.13;4870947;29;19928;-82
2023/03/13 05:26:45;;;;;;;;;;;;;;;9.86;71.86;101047.34;4846040;29;19935;-79
2023/03/13 05:29:32;;;;;;;;;;;;;;;9.84;71.53;101039.44;4879777;29;19924;-80
2023/03/13 05:32:05;;;;;;;;;;;;;;;9.74;71.49;101040.19;4881448;29;19934;-79
2023/03/13 05:34:42;;;;;;;;;;;;;;;9.71;71.18;101040.72;4897001;29;19923;-81
2023/03/13 05:37:42;;;;;;;;;;;;;;;9.65;72.22;101044.50;4891303;29;19939;-80
2023/03/13 05:40:13;;;;;;;;;;;;;;;9.60;72.35;101050.75;4898835;29;19984;-81
2023/03/13 05:43:04;;;;;;;;;;;;;;;9.38;74.05;101059.03;4898897;29;20348;-79
2023/03/13 05:45:52;;;;;;;;;;;;;;;9.43;74.66;101056.34;4888275;29;19946;-80
2023/03/13 05:48:38;;;;;;;;;;;;;;;9.27;74.60;101044.47;4898281;29;19933;-80
2023/03/13 05:51:21;;;;;;;;;;;;;;;9.41;74.39;101040.22;4880116;29;19934;-80
2023/03/13 05:54:17;;;;;;;;;;;;;;;9.36;74.35;101042.06;4852022;29;19924;-80
2023/03/13 05:57:23;;;;;;;;;;;;;;;9.43;74.96;101050.06;4874995;29;19927;-77
2023/03/13 06:00:18;;;;;;;;;;;;;;;9.51;73.97;101035.91;4880302;29;19923;-79
2023/03/13 06:03:02;;;;;;;;;;;;;;;9.62;73.75;101053.19;4892295;29;20367;-78
2023/03/13 06:05:37;;;;;;;;;;;;;;;9.73;73.63;101054.94;4862486;29;19935;-79
2023/03/13 06:08:12;;;;;;;;;;;;;;;9.61;73.98;101057.03;4861684;29;19931;-77
2023/03/13 06:10:40;;;;;;;;;;;;;;;9.82;73.34;101058.00;4860174;29;20399;-77
2023/03/13 06:13:08;;;;;;;;;;;;;;;9.81;73.40;101067.28;4854935;29;20314;-80
2023/03/13 06:15:52;;;;;;;;;;;;;;;9.76;73.54;101059.88;4874674;29;20343;-80
2023/03/13 06:18:37;;;;;;;;;;;;;;;9.90;73.18;101071.19;4874825;29;19945;-80
2023/03/13 06:21:04;;;;;;;;;;;;;;;10.15;71.47;101075.16;4862532;29;19927;-80
2023/03/13 06:23:32;;;;;;;;;;;;;;;10.32;70.53;101079.63;4879081;29;20379;-80
2023/03/13 06:26:00;;;;;;;;;;;;;;;10.33;69.97;101075.81;4879249;29;19950;-80
2023/03/13 06:28:28;;;;;;;;;;;;;;;10.38;70.13;101069.53;4878944;29;19931;-80
2023/03/13 06:31:00;;;;;;;;;;;;;;;10.35;70.92;101076.34;4879044;29;19934;-80
2023/03/13 06:33:30;;;;;;;;;;;;;;;10.14;71.91;101070.78;4879471;29;19950;-80
2023/03/13 06:35:59;;;;;;;;;;;;;;;10.19;72.08;101079.03;4878214;29;19923;-80
2023/03/13 06:38:28;;;;;;;;;;;;;;;10.15;72.84;101080.63;4844919;29;20354;-77
2023/03/13 06:40:56;;;;;;;;;;;;;;;10.33;71.08;101084.00;4862095;29;19927;-79
2023/03/13 06:43:23;;;;;;;;;;;;;;;10.32;72.51;101085.91;4878794;29;19923;-79
2023/03/13 06:45:51;;;;;;;;;;;;;;;10.51;71.05;101098.34;4878427;29;19946;-78
2023/03/13 06:48:20;;;;;;;;;;;;;;;10.46;71.46;101112.84;4878904;29;19931;-78
2023/03/13 06:50:48;;;;;;;;;;;;;;;10.57;71.43;101110.97;4878006;29;19927;-78
2023/03/13 06:53:17;;;;;;;;;;;;;;;10.79;70.87;101102.56;4878967;29;19935;-78
2023/03/13 06:55:45;;;;;;;;;;;;;;;10.77;71.13;101090.22;4876919;29;19935;-78
2023/03/13 06:58:12;;;;;;;;;;;;;;;10.53;71.62;101090.69;4878931;29;19924;-78
2023/03/13 07:00:58;;;;;;;;;;;;;;;10.56;71.66;101076.50;4879032;29;19931;-78
2023/03/13 07:03:26;;;;;;;;;;;;;;;10.67;71.50;101083.66;4878665;29;19924;-78
2023/03/13 07:05:57;;;;;;;;;;;;;;;10.89;69.57;101093.56;4896903;29;19927;-78
2023/03/13 07:08:26;;;;;;;;;;;;;;;11.01;70.43;101094.13;4897379;29;19946;-78
2023/03/13 07:10:57;;;;;;;;;;;;;;;11.15;68.91;101099.13;4896140;29;19950;-78
2023/03/13 07:13:25;;;;;;;;;;;;;;;11.19;68.69;101091.97;4897402;29;19931;-79
2023/03/13 07:15:52;;;;;;;;;;;;;;;11.18;69.25;101104.03;4897406;29;19930;-79
2023/03/13 07:18:23;;;;;;;;;;;;;;;11.24;69.18;101094.72;4880802;29;19923;-78
2023/03/13 07:20:51;;;;;;;;;;;;;;;11.12;69.90;101088.69;4897290;29;19924;-79
2023/03/13 07:23:19;;;;;;;;;;;;;;;11.22;69.53;101093.34;4897294;29;19982;-79
2023/03/13 07:25:54;;;;;;;;;;;;;;;11.43;68.92;101105.16;4897383;29;19930;-79
2023/03/13 07:28:22;;;;;;;;;;;;;;;11.43;68.17;101111.47;4897272;29;19935;-79
2023/03/13 07:30:50;;;;;;;;;;;;;;;11.50;69.33;101099.41;4897071;29;19923;-79
2023/03/13 07:33:18;;;;;;;;;;;;;;;11.46;69.19;101095.56;4897105;29;19946;-79
2023/03/13 07:35:47;;;;;;;;;;;;;;;11.52;68.63;101102.69;4895570;29;19923;-79
2023/03/13 07:38:14;;;;;;;;;;;;;;;11.81;68.26;101103.00;4897110;29;20377;-79
2023/03/13 07:40:55;;;;;;;;;;;;;;;11.85;67.49;101099.69;4897329;29;19923;-79
2023/03/13 07:43:23;;;;;;;;;;;;;;;11.85;68.44;101096.94;4897266;29;20271;-79
2023/03/13 07:46:01;;;;;;;;;;;;;;;12.02;68.02;101089.22;4897480;29;19924;-79
2023/03/13 07:48:33;;;;;;;;;;;;;;;12.04;66.81;101080.75;4896917;29;19923;-79
2023/03/13 07:51:18;;;;;;;;;;;;;;;12.06;66.15;101090.34;4844193;29;19928;-79
2023/03/13 07:53:56;;;;;;;;;;;;;;;12.21;66.79;101089.50;4861189;29;19924;-79
2023/03/13 07:56:24;;;;;;;;;;;;;;;12.23;65.21;101079.06;4861449;29;20435;-79
2023/03/13 07:58:52;;;;;;;;;;;;;;;12.51;63.97;101078.69;4861510;29;19924;-79
2023/03/13 08:01:24;;;;;;;;;;;;;;;12.68;63.58;101089.34;4846158;29;20060;-79
2023/03/13 08:03:55;;;;;;;;;;;;;;;12.51;65.00;101089.66;4861305;29;20430;-79
2023/03/13 08:06:23;;;;;;;;;;;;;;;12.53;64.67;101081.16;4861959;29;19935;-79
2023/03/13 08:08:52;;;;;;;;;;;;;;;12.68;62.81;101088.50;4846963;29;19924;-79
2023/03/13 08:11:23;;;;;;;;;;;;;;;12.76;61.13;101083.25;4861285;29;20049;-79
2023/03/13 08:14:10;;;;;;;;;;;;;;;;;;;;;
2023/03/13 08:16:38;;;;;;;;;;;;;;;12.92;60.45;101079.59;4861102;29;20296;-79
2023/03/13 08:19:06;;;;;;;;;;;;;;;13.03;59.94;101070.19;4861250;29;19928;-79
2023/03/13 08:21:35;;;;;;;;;;;;;;;13.53;57.09;101075.63;4871623;29;19931;-79
2023/03/13 08:24:05;;;;;;;;;;;;;;;13.50;55.48;101076.19;4900596;29;19927;-79
2023/03/13 08:26:34;;;;;;;;;;;;;;;13.39;55.82;101072.69;4883610;29;19928;-79
2023/03/13 08:29:04;;;;;;;;;;;;;;;13.80;54.44;101085.31;4900407;29;19923;-79
2023/03/13 08:31:33;;;;;;;;;;;;;;;13.94;51.45;101095.63;4900263;29;20375;-79
2023/03/13 08:34:00;;;;;;;;;;;;;;;14.35;51.16;101099.88;4900394;29;19931;-79
2023/03/13 08:36:30;;;;;;;;;;;;;;;14.33;50.30;101102.09;4883809;29;20302;-79
2023/03/13 08:38:59;;;;;;;;;;;;;;;14.76;50.74;101107.66;4900178;29;19927;-79
2023/03/13 08:41:28;;;;;;;;;;;;;;;14.86;50.43;101100.41;4900138;29;20287;-78
2023/03/13 08:43:56;;;;;;;;;;;;;;;14.99;49.80;101102.41;4882324;29;19935;-78
2023/03/13 08:46:24;;;;;;;;;;;;;;;15.08;48.95;101104.47;4900093;29;19923;-78
2023/03/13 08:48:52;;;;;;;;;;;;;;;14.93;49.41;101109.09;4899968;29;19923;-78
2023/03/13 08:51:25;;;;;;;;;;;;;;;14.74;52.13;101106.28;4882620;29;19923;-79
2023/03/13 08:53:54;;;;;;;;;;;;;;;15.07;52.91;101114.72;4900068;29;19931;-77
2023/03/13 08:56:24;;;;;;;;;;;;;;;14.95;50.63;101115.13;4899962;29;19927;-79
2023/03/13 08:58:52;;;;;;;;;;;;;;;14.67;51.59;101123.19;4899868;29;19930;-79
2023/03/13 09:01:21;;;;;;;;;;;;;;;14.56;51.13;101116.16;4883012;29;19924;-78
2023/03/13 09:03:49;;;;;;;;;;;;;;;14.45;50.86;101116.28;4899695;29;19934;-78
2023/03/13 09:06:17;;;;;;;;;;;;;;;14.21;51.85;101128.09;4899798;29;19930;-78
2023/03/13 09:08:45;;;;;;;;;;;;;;;13.95;51.60;101120.09;4898426;29;20312;-78
2023/03/13 09:11:14;;;;;;;;;;;;;;;14.10;50.67;101121.88;4899335;29;19923;-78
2023/03/13 09:13:45;;;;;;;;;;;;;;;14.57;50.61;101112.28;4899657;29;19934;-78
2023/03/13 09:16:18;;;;;;;;;;;;;;;15.01;48.52;101119.47;4899636;29;19927;-78
2023/03/13 09:18:46;;;;;;;;;;;;;;;15.28;47.92;101120.75;4882792;29;19947;-79
2023/03/13 09:21:16;;;;;;;;;;;;;;;15.57;46.31;101122.50;4899494;29;19934;-79
2023/03/13 09:23:44;;;;;;;;;;;;;;;15.75;48.61;101116.41;4899617;29;19930;-78
2023/03/13 09:26:12;;;;;;;;;;;;;;;15.68;45.68;101125.06;4899885;29;19946;-78
2023/03/13 09:28:43;;;;;;;;;;;;;;;15.84;44.18;101111.84;4899238;29;19934;-79
2023/03/13 09:31:15;;;;;;;;;;;;;;;16.09;46.07;101110.59;4899089;29;19927;-79
2023/03/13 09:33:43;;;;;;;;;;;;;;;16.22;44.26;101114.50;4899320;29;19923;-78
2023/03/13 09:36:11;;;;;;;;;;;;;;;16.07;43.18;101107.31;4899287;29;19924;-78
2023/03/13 09:38:39;;;;;;;;;;;;;;;15.98;44.34;101098.09;4899222;29;19927;-79
2023/03/13 09:44:13;;;;;;;;;;;;;;;16.16;43.48;101098.31;4897499;29;19930;-79
2023/03/13 09:46:47;;;;;;;;;;;;;;;15.74;42.84;101088.00;4899083;29;19927;-79
2023/03/13 09:49:29;;;;;;;;;;;;;;;15.69;44.84;101082.59;4898868;29;19927;-79
2023/03/13 09:52:04;;;;;;;;;;;;;;;16.30;43.27;101079.84;4898757;29;19931;-78
2023/03/13 09:54:41;;;;;;;;;;;;;;;16.05;41.28;101089.41;4881781;29;19923;-78
2023/03/13 09:57:32;;;;;;;;;;;;;;;16.04;37.61;101096.06;4899157;29;19927;-79
2023/03/13 10:00:06;;;;;;;;;;;;;;;15.90;41.60;101096.00;4893439;29;19923;-78
2023/03/13 10:02:34;;;;;;;;;;;;;;;16.46;40.67;101096.06;4898682;29;19930;-79
2023/03/13 10:05:04;;;;;;;;;;;;;;;16.47;39.55;101097.75;4898501;29;19924;-79
2023/03/13 10:07:32;;;;;;;;;;;;;;;16.89;38.73;101094.91;4898596;29;19930;-79
2023/03/13 10:10:00;;;;;;;;;;;;;;;16.89;40.85;101092.97;4898419;29;19930;-79
2023/03/13 10:12:30;;;;;;;;;;;;;;;16.96;39.18;101091.72;4881692;29;19924;-79
2023/03/13 10:15:07;;;;;;;;;;;;;;;16.47;41.90;101095.78;4898079;29;19924;-79
2023/03/13 10:17:36;;;;;;;;;;;;;;;16.58;43.24;101092.81;4898373;29;19930;-79
2023/03/13 10:20:22;;;;;;;;;;;;;;;17.23;40.62;101095.56;4898385;29;20410;-78
2023/03/13 10:23:09;;;;;;;;;;;;;;;17.47;39.83;101092.50;4898193;29;19935;-78
2023/03/13 10:25:38;;;;;;;;;;;;;;;16.95;40.47;101090.91;4878661;29;20326;-78
2023/03/13 10:28:09;;;;;;;;;;;;;;;17.25;40.14;101104.38;4898270;29;20291;-78
2023/03/13 10:30:42;;;;;;;;;;;;;;;17.51;40.07;101096.28;4898135;29;19939;-79
2023/03/13 10:33:10;;;;;;;;;;;;;;;17.63;38.79;101092.09;4898204;29;20404;-78
2023/03/13 10:35:39;;;;;;;;;;;;;;;16.72;40.91;101082.53;4881283;29;19924;-79
2023/03/13 10:38:20;;;;;;;;;;;;;;;17.21;40.19;101076.53;4896672;29;19927;-79
2023/03/13 10:40:57;;;;;;;;;;;;;;;17.28;40.16;101081.63;4898102;29;19930;-78
2023/03/13 10:43:26;;;;;;;;;;;;;;;17.18;41.21;101075.22;4898161;29;19927;-78
2023/03/13 10:45:54;;;;;;;;;;;;;;;16.74;42.73;101073.97;4898287;29;20025;-78
2023/03/13 10:48:25;;;;;;;;;;;;;;;16.77;40.27;101073.34;4897782;29;19923;-77
2023/03/13 10:50:56;;;;;;;;;;;;;;;16.63;40.79;101054.81;4896597;29;19930;-78
2023/03/13 10:53:30;;;;;;;;;;;;;;;16.81;41.23;101052.22;4897836;29;19930;-78
2023/03/13 10:56:10;;;;;;;;;;;;;;;16.83;40.36;101061.06;4897806;29;19928;-78
2023/03/13 10:58:45;;;;;;;;;;;;;;;17.05;39.85;101059.47;4897839;29;19934;-78
2023/03/13 11:01:32;;;;;;;;;;;;;;;16.86;41.24;101065.94;4897703;29;19930;-78
2023/03/13 11:04:17;;;;;;;;;;;;;;;17.04;41.72;101075.25;4897544;29;19935;-78
2023/03/13 11:06:49;;;;;;;;;;;;;;;17.25;40.03;101060.13;4897658;29;19931;-78
2023/03/13 11:09:17;;;;;;;;;;;;;;;17.70;40.63;101057.31;4897566;29;19931;-78
2023/03/13 11:11:46;;;;;;;;;;;;;;;18.10;40.48;101048.25;4880593;29;19931;-78
2023/03/13 11:14:15;;;;;;;;;;;;;;;18.40;39.06;101047.69;4897577;29;19924;-78
2023/03/13 11:16:46;;;;;;;;;;;;;;;18.82;39.21;101040.91;4897569;29;20398;-79
2023/03/13 11:19:14;;;;;;;;;;;;;;;18.84;38.09;101039.44;4896428;29;19923;-78
2023/03/13 11:22:00;;;;;;;;;;;;;;;18.40;36.89;101042.16;4897467;29;19923;-78
2023/03/13 11:24:54;;;;;;;;;;;;;;;18.05;39.47;101023.47;4896443;29;19927;-93
2023/03/13 11:27:41;;;;;;;;;;;;;;;17.91;41.94;101025.50;4895747;29;20294;-93
2023/03/13 11:30:21;;;;;;;;;;;;;;;17.77;41.25;101025.59;4865062;29;19934;-93
2023/03/13 11:33:00;;;;;;;;;;;;;;;17.58;42.47;101024.69;4864645;29;19940;-92
2023/03/13 11:35:35;;;;;;;;;;;;;;;17.65;41.41;101015.94;4879290;29;19927;-93
2023/03/13 11:38:07;;;;;;;;;;;;;;;17.55;41.94;101014.25;4865365;29;19934;-93
2023/03/13 11:40:46;;;;;;;;;;;;;;;17.53;40.76;101018.47;4879891;29;19923;-93
2023/03/13 11:43:17;;;;;;;;;;;;;;;17.36;41.49;101016.44;4865354;29;20041;-94
2023/03/13 11:46:24;;;;;;;;;;;;;;;17.40;42.63;101017.44;4879854;29;19923;-93
2023/03/13 11:49:08;;;;;;;;;;;;;;;17.37;40.71;101018.06;4854196;29;20371;-92
2023/03/13 11:51:52;;;;;;;;;;;;;;;17.34;40.92;101011.19;4879226;29;19931;-92
2023/03/13 11:54:23;;;;;;;;;;;;;;;17.55;41.87;100996.84;4849508;29;19923;-93
2023/03/13 11:56:56;;;;;;;;;;;;;;;17.56;41.85;100992.94;4879276;29;20394;-93
2023/03/13 11:59:42;;;;;;;;;;;;;;;17.56;41.49;100996.50;4865246;29;20279;-92
2023/03/13 12:02:13;;;;;;;;;;;;;;;17.69;40.62;100978.19;4864899;29;20278;-93
2023/03/13 12:04:53;;;;;;;;;;;;;;;17.70;41.92;100984.56;4865432;29;19924;-93
2023/03/13 12:07:31;;;;;;;;;;;;;;;17.85;41.06;100967.50;4883002;29;19931;-94
2023/03/13 12:10:19;;;;;;;;;;;;;;;17.85;41.24;100978.56;4876084;29;19923;-93
2023/03/13 12:13:06;;;;;;;;;;;;;;;17.90;40.86;100962.97;4895807;29;19931;-91
2023/03/13 12:15:39;;;;;;;;;;;;;;;18.27;40.99;100961.63;4900524;29;19934;-91
2023/03/13 12:18:30;;;;;;;;;;;;;;;18.34;40.71;100960.34;4899233;29;19927;-95
2023/03/13 12:21:16;;;;;;;;;;;;;;;18.46;41.71;100956.91;4874254;29;19934;-94
2023/03/13 12:23:48;;;;;;;;;;;;;;;18.32;41.20;100946.78;4883253;29;19927;-93
2023/03/13 12:26:26;;;;;;;;;;;;;;;17.93;40.42;100942.97;4883515;29;20374;-93
2023/03/13 12:28:57;;;;;;;;;;;;;;;18.32;40.82;100948.78;4899002;29;19934;-92
2023/03/13 12:31:30;;;;;;;;;;;;;;;18.47;41.16;100945.50;4898747;29;19934;-93
2023/03/13 12:34:01;;;;;;;;;;;;;;;18.46;41.06;100945.81;4898855;29;20293;-92
2023/03/13 12:36:49;;;;;;;;;;;;;;;18.11;41.58;100932.75;4883328;29;19923;-93
2023/03/13 12:39:33;;;;;;;;;;;;;;;17.87;40.52;100920.13;4901533;29;20361;-92
2023/03/13 12:42:06;;;;;;;;;;;;;;;17.84;41.19;100913.28;4866675;29;19928;-92
2023/03/13 12:44:34;;;;;;;;;;;;;;;17.95;41.27;100919.31;4890592;29;19924;-93
2023/03/13 12:47:08;;;;;;;;;;;;;;;18.32;40.70;100913.56;4881751;29;19927;-92
2023/03/13 12:49:35;;;;;;;;;;;;;;;18.25;39.43;100894.66;4872527;29;19934;-92
2023/03/13 12:52:06;;;;;;;;;;;;;;;18.24;40.07;100894.97;4898397;29;19927;-92
2023/03/13 12:54:47;;;;;;;;;;;;;;;18.18;40.31;100874.94;4882082;29;19939;-92
2023/03/13 12:57:15;;;;;;;;;;;;;;;17.99;40.32;100887.09;4871308;29;19947;-92
2023/03/13 12:59:46;;;;;;;;;;;;;;;17.80;40.15;100869.97;4867690;29;20379;-92
2023/03/13 13:02:17;;;;;;;;;;;;;;;17.97;39.52;100871.94;4883408;29;19930;-93
2023/03/13 13:04:46;;;;;;;;;;;;;;;18.12;41.17;100870.69;4912035;29;19923;-93
2023/03/13 13:07:23;;;;;;;;;;;;;;;18.23;39.91;100869.22;4896078;29;19923;-93
2023/03/13 13:10:09;;;;;;;;;;;;;;;18.24;39.93;100867.28;4866599;29;19927;-92
2023/03/13 13:12:36;;;;;;;;;;;;;;;18.40;41.66;100864.84;4863203;29;19923;-93
2023/03/13 13:15:10;;;;;;;;;;;;;;;18.15;40.70;100856.19;4866257;29;19931;-94
2023/03/13 13:17:44;;;;;;;;;;;;;;;18.24;41.23;100848.69;4867406;29;19933;-92
2023/03/13 13:20:24;;;;;;;;;;;;;;;18.16;40.24;100849.50;4882573;29;19923;-93
2023/03/13 13:22:52;;;;;;;;;;;;;;;18.32;40.46;100849.03;4882963;29;19930;-92